Sahovskaja, Russia
Current Conditions -  °F | °C
As of 12:00 PM on Friday 31 Oct 2014 (Local Time) from UUBW Reporting Station
Haze Haze  
Wind Chill: 35°   Ceiling: 10000
Heat Index: 41°   Visibility: 3mi
Dew Point: 28°   Wind: 9mph
Humidity: 61%   Direction: 330°NNW
Pressure: 30.06"   Gusts: NA
Location:  56.03°N, 35.52°E
Report Text: UUBW 310900Z 33004MPS 5000 HZ SCT021 BKN100 05/M02 Q1018 NOSIGRMK SC060
Loading
Personal Weather Stations






























Interactive Weather Map
Tropical Storm Tracking
New forecast layout! Learn more

10-Day Weather Forecast

Advertisements
Track Severe Weather on mobile